createdAt,value
2022-09-06T00:01:23.576Z,4.25
2022-09-06T00:04:26.756Z,4.40
2022-09-06T00:07:29.769Z,4.73
2022-09-06T00:10:32.949Z,4.68
2022-09-06T00:13:36.060Z,4.90
2022-09-06T00:16:40.712Z,4.60
2022-09-06T00:19:43.675Z,4.47
2022-09-06T00:22:46.613Z,4.40
2022-09-06T00:25:49.587Z,4.30
2022-09-06T00:28:52.592Z,4.00
2022-09-06T00:31:55.594Z,4.10
2022-09-06T00:34:58.556Z,4.27
2022-09-06T00:38:01.904Z,4.30
2022-09-06T00:41:05.649Z,3.90
2022-09-06T00:44:08.594Z,4.05
2022-09-06T00:47:11.615Z,4.45
2022-09-06T00:50:15.391Z,3.77
2022-09-06T00:53:18.721Z,4.10
2022-09-06T00:56:21.744Z,4.20
2022-09-06T00:59:26.529Z,4.05
2022-09-06T01:02:29.626Z,4.15
2022-09-06T01:05:54.451Z,4.10
2022-09-06T01:09:22.396Z,4.60
2022-09-06T01:13:02.299Z,4.53
2022-09-06T01:16:20.116Z,4.63
2022-09-06T01:19:32.083Z,4.18
2022-09-06T01:22:40.847Z,3.90
2022-09-06T01:26:10.210Z,4.83
2022-09-06T01:29:50.330Z,4.43
2022-09-06T01:33:20.982Z,3.90
2022-09-06T01:36:27.335Z,4.40
2022-09-06T01:39:32.227Z,4.13
2022-09-06T01:42:35.271Z,4.00
2022-09-06T01:45:49.092Z,4.20
2022-09-06T01:49:06.881Z,4.00
2022-09-06T01:52:37.930Z,4.10
2022-09-06T01:56:18.526Z,4.53
2022-09-06T01:59:35.107Z,4.33
2022-09-06T02:03:05.121Z,4.30
2022-09-06T02:06:13.519Z,4.05
2022-09-06T02:09:19.429Z,4.05
2022-09-06T02:12:22.771Z,4.37
2022-09-06T02:15:32.042Z,4.47
2022-09-06T02:18:51.408Z,4.57
2022-09-06T02:21:54.366Z,4.35
2022-09-06T02:24:57.598Z,4.80
2022-09-06T02:28:00.561Z,4.57
2022-09-06T02:31:07.099Z,4.47
2022-09-06T02:34:10.433Z,4.03
2022-09-06T02:37:13.950Z,4.70
2022-09-06T02:40:17.002Z,4.07
2022-09-06T02:43:20.274Z,4.87
2022-09-06T02:46:24.466Z,4.60
2022-09-06T02:49:27.476Z,5.13
2022-09-06T02:52:30.794Z,4.82
2022-09-06T02:55:33.797Z,5.18
2022-09-06T02:58:36.747Z,4.90
2022-09-06T03:01:39.827Z,4.93
2022-09-06T03:04:42.864Z,4.88
2022-09-06T03:07:45.876Z,5.35
2022-09-06T03:10:53.382Z,5.22
2022-09-06T03:13:56.407Z,5.50
2022-09-06T03:16:59.464Z,5.77
2022-09-06T03:20:02.612Z,5.60
2022-09-06T03:23:05.600Z,5.55
2022-09-06T03:26:08.655Z,5.88
2022-09-06T03:29:11.616Z,5.63
2022-09-06T03:32:14.640Z,13.83
2022-09-06T03:35:17.619Z,6.22
2022-09-06T03:38:20.785Z,5.47
2022-09-06T03:41:23.826Z,5.40
2022-09-06T03:44:26.756Z,5.50
2022-09-06T03:47:29.729Z,5.97
2022-09-06T03:50:32.693Z,5.07
2022-09-06T03:53:35.656Z,5.63
2022-09-06T03:56:38.615Z,5.68
2022-09-06T03:59:41.570Z,6.03
2022-09-06T04:02:44.596Z,5.17
2022-09-06T04:05:47.661Z,5.22
2022-09-06T04:08:50.652Z,4.72
2022-09-06T04:11:53.655Z,5.63
2022-09-06T04:14:56.626Z,4.93
2022-09-06T04:17:59.651Z,4.97
2022-09-06T04:21:03.036Z,4.97
2022-09-06T04:24:05.979Z,5.15
2022-09-06T04:27:08.935Z,4.47
2022-09-06T04:30:12.021Z,4.80
2022-09-06T04:33:15.003Z,5.10
2022-09-06T04:36:17.986Z,5.18
2022-09-06T04:39:20.977Z,4.75
2022-09-06T04:42:23.957Z,4.82
2022-09-06T04:45:26.990Z,4.90
2022-09-06T04:48:30.070Z,5.03
2022-09-06T04:51:33.080Z,4.90
2022-09-06T04:54:36.307Z,5.03
2022-09-06T04:57:43.744Z,5.60
2022-09-06T05:00:49.022Z,4.90
2022-09-06T05:03:56.169Z,6.77
2022-09-06T05:07:07.060Z,5.63
2022-09-06T05:10:10.149Z,5.35
2022-09-06T05:13:13.134Z,5.00
2022-09-06T05:16:16.223Z,5.87
2022-09-06T05:19:19.344Z,5.20
2022-09-06T05:22:22.316Z,5.22
2022-09-06T05:25:25.372Z,5.75
2022-09-06T05:28:28.493Z,6.10
2022-09-06T05:31:32.780Z,5.67
2022-09-06T05:34:35.778Z,5.70
2022-09-06T05:37:38.751Z,5.07
2022-09-06T05:40:41.857Z,5.93
2022-09-06T05:43:45.149Z,5.47
2022-09-06T05:46:48.243Z,4.40
2022-09-06T05:49:52.080Z,4.90
2022-09-06T05:52:55.272Z,4.60
2022-09-06T05:55:58.232Z,4.65
2022-09-06T05:59:01.277Z,4.40
2022-09-06T06:02:07.338Z,4.17
2022-09-06T06:05:10.800Z,4.20
2022-09-06T06:08:13.820Z,4.18
2022-09-06T06:11:17.007Z,4.63
2022-09-06T06:14:20.021Z,4.55
2022-09-06T06:17:23.546Z,4.00
2022-09-06T06:20:26.534Z,4.20
2022-09-06T06:23:29.527Z,4.22
2022-09-06T06:26:34.340Z,4.45
2022-09-06T06:29:37.397Z,4.75
2022-09-06T06:32:40.486Z,4.57
2022-09-06T06:35:55.984Z,4.57
2022-09-06T06:38:59.213Z,4.63
2022-09-06T06:42:02.192Z,4.72
2022-09-06T06:45:18.725Z,4.05
2022-09-06T06:48:21.966Z,4.50
2022-09-06T06:51:26.473Z,4.77
2022-09-06T06:54:29.898Z,4.63
2022-09-06T06:57:33.017Z,4.38
2022-09-06T07:00:36.018Z,4.22
2022-09-06T07:03:39.282Z,4.70
2022-09-06T07:13:39.006Z,4.32
2022-09-06T07:16:42.188Z,4.43
2022-09-06T07:26:31.867Z,4.55
2022-09-06T07:29:34.944Z,4.18
2022-09-06T07:32:38.206Z,4.57
2022-09-06T07:35:41.722Z,5.07
2022-09-06T07:38:47.589Z,4.97
2022-09-06T07:41:50.581Z,4.97
2022-09-06T07:44:57.264Z,4.22
2022-09-06T07:48:00.370Z,4.70
2022-09-06T07:51:08.129Z,5.43
2022-09-06T07:54:29.786Z,5.07
2022-09-06T07:57:33.620Z,5.03
2022-09-06T08:00:36.732Z,5.13
2022-09-06T08:03:39.797Z,4.65
2022-09-06T08:10:13.147Z,5.33
2022-09-06T08:13:17.003Z,4.68
2022-09-06T08:16:20.263Z,5.22
2022-09-06T08:19:23.544Z,4.50
2022-09-06T08:22:26.490Z,4.70
2022-09-06T08:25:29.565Z,4.77
2022-09-06T08:28:32.563Z,4.32
2022-09-06T08:31:37.059Z,4.20
2022-09-06T08:34:40.097Z,4.85
2022-09-06T08:37:43.052Z,5.10
2022-09-06T08:40:46.050Z,5.27
2022-09-06T08:47:33.590Z,5.20
2022-09-06T08:50:36.642Z,4.50
2022-09-06T08:53:46.523Z,4.37
2022-09-06T08:57:25.667Z,5.37
2022-09-06T09:00:28.730Z,4.90
2022-09-06T09:03:39.140Z,4.95
2022-09-06T09:06:42.236Z,4.93
2022-09-06T09:09:45.310Z,4.73
2022-09-06T09:12:48.774Z,4.97
2022-09-06T09:15:52.056Z,4.88
2022-09-06T09:18:57.174Z,4.65
2022-09-06T09:22:00.237Z,5.30
2022-09-06T09:25:03.490Z,5.20
2022-09-06T09:28:07.258Z,4.70
2022-09-06T09:31:10.389Z,5.30
2022-09-06T09:34:14.860Z,5.63
2022-09-06T09:41:04.327Z,5.37
2022-09-06T09:44:16.456Z,5.60
2022-09-06T09:47:28.560Z,5.80
2022-09-06T09:50:35.527Z,5.88
2022-09-06T09:53:40.793Z,6.13
2022-09-06T09:56:49.789Z,5.53
2022-09-06T10:00:03.328Z,5.50
2022-09-06T10:03:17.482Z,6.10
2022-09-06T10:10:04.119Z,5.63
2022-09-06T10:13:26.696Z,5.47
2022-09-06T10:16:44.667Z,5.00
2022-09-06T10:19:48.812Z,5.03
2022-09-06T10:23:16.386Z,5.07
2022-09-06T10:26:32.724Z,6.20
2022-09-06T10:29:45.830Z,5.20
2022-09-06T10:33:13.776Z,6.73
2022-09-06T10:36:34.112Z,6.93
2022-09-06T10:39:45.907Z,6.43
2022-09-06T10:42:50.229Z,6.45
2022-09-06T10:46:09.386Z,5.80
2022-09-06T10:49:18.211Z,5.83
2022-09-06T10:52:34.719Z,6.05
2022-09-06T10:55:40.236Z,5.43
2022-09-06T10:59:39.879Z,5.75
2022-09-06T11:06:20.345Z,4.87
2022-09-06T11:09:44.336Z,4.53
2022-09-06T11:12:48.082Z,5.25
2022-09-06T11:16:05.429Z,5.38
2022-09-06T11:19:21.631Z,4.60
2022-09-06T11:22:42.606Z,4.10
2022-09-06T11:26:06.701Z,4.53
2022-09-06T11:29:26.060Z,4.60
2022-09-06T11:32:38.733Z,5.18
2022-09-06T11:35:41.702Z,5.00
2022-09-06T11:38:53.415Z,5.63
2022-09-06T11:41:56.443Z,5.05
2022-09-06T11:44:59.411Z,4.90
2022-09-06T11:48:34.122Z,5.43
2022-09-06T11:51:44.001Z,4.70
2022-09-06T11:54:47.322Z,5.80
2022-09-06T11:57:53.999Z,5.38
2022-09-06T12:01:12.139Z,5.07
2022-09-06T12:04:15.089Z,5.20
2022-09-06T12:07:18.044Z,5.33
2022-09-06T12:10:42.036Z,5.13
2022-09-06T12:13:57.988Z,5.10
2022-09-06T12:17:00.956Z,5.20
2022-09-06T12:20:08.300Z,5.28
2022-09-06T12:23:29.745Z,5.23
2022-09-06T12:27:07.937Z,5.40
2022-09-06T12:30:12.513Z,5.40
2022-09-06T12:33:23.962Z,5.15
2022-09-06T12:36:31.145Z,4.90
2022-09-06T12:39:34.715Z,5.00
2022-09-06T12:42:38.379Z,5.10
2022-09-06T12:45:44.949Z,4.93
2022-09-06T12:49:20.442Z,4.90
2022-09-06T12:52:23.457Z,4.87
2022-09-06T12:55:33.377Z,4.43
2022-09-06T12:58:36.694Z,5.20
2022-09-06T13:01:39.835Z,4.65
2022-09-06T13:04:44.032Z,4.78
2022-09-06T13:07:50.401Z,4.40
2022-09-06T13:10:53.325Z,4.13
2022-09-06T13:13:56.320Z,4.47
2022-09-06T13:16:59.992Z,4.65
2022-09-06T13:20:29.268Z,5.07
2022-09-06T13:23:42.132Z,5.10
2022-09-06T13:26:45.344Z,4.90
2022-09-06T13:30:05.753Z,4.95
2022-09-06T13:33:19.750Z,4.60
2022-09-06T13:36:31.014Z,4.68
2022-09-06T13:39:38.177Z,4.43
2022-09-06T13:42:41.298Z,4.57
2022-09-06T13:45:47.169Z,4.47
2022-09-06T13:48:50.140Z,4.18
2022-09-06T13:51:53.549Z,3.60
2022-09-06T13:54:56.487Z,3.63
2022-09-06T13:57:59.589Z,4.20
2022-09-06T14:01:02.694Z,4.00
2022-09-06T14:04:06.279Z,3.90
2022-09-06T14:07:09.303Z,3.80
2022-09-06T14:10:12.581Z,3.80
2022-09-06T14:13:18.562Z,3.93
2022-09-06T14:16:21.763Z,4.25
2022-09-06T14:19:24.817Z,3.60
2022-09-06T14:22:27.937Z,3.83
2022-09-06T14:25:31.277Z,3.87
2022-09-06T14:28:37.213Z,3.73
2022-09-06T14:31:40.349Z,3.75
2022-09-06T14:34:43.299Z,3.63
2022-09-06T14:37:46.225Z,3.70
2022-09-06T14:40:49.234Z,3.30
2022-09-06T14:43:53.780Z,3.77
2022-09-06T14:46:56.880Z,3.60
2022-09-06T14:50:00.571Z,3.58
2022-09-06T14:53:08.766Z,3.67
2022-09-06T14:56:18.256Z,3.60
2022-09-06T14:59:21.287Z,3.70
2022-09-06T15:02:26.236Z,3.75
2022-09-06T15:05:29.315Z,3.95
2022-09-06T15:08:32.539Z,4.10
2022-09-06T15:11:41.057Z,4.00
2022-09-06T15:14:44.037Z,4.23
2022-09-06T15:17:47.012Z,4.43
2022-09-06T15:20:50.598Z,4.07
2022-09-06T15:23:53.808Z,3.53
2022-09-06T15:26:56.896Z,4.00
2022-09-06T15:29:59.888Z,3.90
2022-09-06T15:33:02.907Z,4.10
2022-09-06T15:36:06.743Z,4.43
2022-09-06T15:39:09.743Z,4.82
2022-09-06T15:42:13.298Z,4.17
2022-09-06T15:45:16.397Z,5.32
2022-09-06T15:48:19.757Z,5.70
2022-09-06T15:51:22.773Z,4.93
2022-09-06T15:54:44.208Z,4.88
2022-09-06T15:57:47.269Z,4.80
2022-09-06T16:01:16.109Z,5.25
2022-09-06T16:04:19.111Z,5.85
2022-09-06T16:07:22.114Z,6.90
2022-09-06T16:10:25.227Z,5.43
2022-09-06T16:13:37.535Z,5.00
2022-09-06T16:16:41.756Z,5.07
2022-09-06T16:19:45.637Z,4.70
2022-09-06T16:22:49.804Z,5.28
2022-09-06T16:25:53.604Z,4.82
2022-09-06T16:28:56.609Z,5.33
2022-09-06T16:32:00.679Z,5.13
2022-09-06T16:35:05.873Z,4.80
2022-09-06T16:38:09.324Z,5.57
2022-09-06T16:41:23.633Z,4.97
2022-09-06T16:44:26.657Z,5.17
2022-09-06T16:47:31.813Z,5.00
2022-09-06T16:50:34.913Z,5.82
2022-09-06T16:53:40.174Z,6.07
2022-09-06T16:56:43.188Z,5.10
2022-09-06T16:59:46.310Z,5.70
2022-09-06T17:02:49.489Z,5.57
2022-09-06T17:05:52.949Z,6.43
2022-09-06T17:08:59.382Z,5.95
2022-09-06T17:12:02.669Z,5.80
2022-09-06T17:15:06.159Z,5.17
2022-09-06T17:18:09.151Z,5.53
2022-09-06T17:21:12.323Z,5.38
2022-09-06T17:24:15.674Z,5.70
2022-09-06T17:27:18.828Z,5.68
2022-09-06T17:30:21.850Z,5.87
2022-09-06T17:33:24.861Z,6.38
2022-09-06T17:36:32.293Z,5.47
2022-09-06T17:39:35.554Z,5.10
2022-09-06T17:42:38.636Z,5.75
2022-09-06T17:45:45.396Z,5.50
2022-09-06T17:48:48.448Z,6.25
2022-09-06T17:51:52.190Z,6.10
2022-09-06T17:54:55.187Z,6.18
2022-09-06T17:57:58.557Z,6.55
2022-09-06T18:01:08.990Z,5.70
2022-09-06T18:04:12.387Z,6.00
2022-09-06T18:07:15.382Z,5.70
2022-09-06T18:10:18.671Z,5.72
2022-09-06T18:13:21.655Z,5.53
2022-09-06T18:16:25.108Z,5.83
2022-09-06T18:19:28.274Z,5.70
2022-09-06T18:22:31.737Z,6.28
2022-09-06T18:25:34.773Z,5.90
2022-09-06T18:28:37.929Z,5.82
2022-09-06T18:31:41.610Z,5.70
2022-09-06T18:34:45.134Z,5.82
2022-09-06T18:37:48.146Z,6.32
2022-09-06T18:40:55.592Z,5.22
2022-09-06T18:44:02.919Z,6.63
2022-09-06T18:47:08.201Z,5.83
2022-09-06T18:50:11.186Z,6.55
2022-09-06T18:53:14.887Z,7.43
2022-09-06T18:56:18.176Z,6.70
2022-09-06T18:59:21.308Z,5.63
2022-09-06T19:02:26.336Z,5.93
2022-09-06T19:05:29.685Z,5.45
2022-09-06T19:08:33.328Z,6.18
2022-09-06T19:11:36.639Z,6.38
2022-09-06T19:14:39.637Z,5.68
2022-09-06T19:17:42.990Z,5.40
2022-09-06T19:20:55.944Z,5.78
2022-09-06T19:24:01.076Z,6.43
2022-09-06T19:27:04.149Z,6.50
2022-09-06T19:30:07.885Z,6.60
2022-09-06T19:33:11.093Z,8.30
2022-09-06T19:36:14.405Z,7.00
2022-09-06T19:39:17.601Z,6.85
2022-09-06T19:42:20.722Z,6.82
2022-09-06T19:45:23.801Z,6.45
2022-09-06T19:48:28.580Z,7.07
2022-09-06T19:51:33.090Z,7.25
2022-09-06T19:54:39.371Z,7.15
2022-09-06T19:57:42.408Z,6.50
2022-09-06T20:00:45.614Z,7.15
2022-09-06T20:03:48.655Z,6.03
2022-09-06T20:06:51.675Z,6.75
2022-09-06T20:09:54.688Z,6.90
2022-09-06T20:12:57.725Z,6.32
2022-09-06T20:16:02.213Z,6.88
2022-09-06T20:19:05.316Z,7.20
2022-09-06T20:22:08.391Z,6.63
2022-09-06T20:25:11.882Z,7.47
2022-09-06T20:28:15.175Z,7.22
2022-09-06T20:31:19.074Z,7.25
2022-09-06T20:34:22.858Z,6.47
2022-09-06T20:37:26.021Z,7.45
2022-09-06T20:40:29.023Z,7.28
2022-09-06T20:43:36.671Z,6.95
2022-09-06T20:46:39.971Z,7.70
2022-09-06T20:49:43.392Z,7.27
2022-09-06T20:52:46.417Z,7.63
2022-09-06T20:56:02.951Z,7.30
2022-09-06T20:59:11.112Z,7.32
2022-09-06T21:02:14.154Z,7.75
2022-09-06T21:05:17.233Z,8.17
2022-09-06T21:08:20.769Z,7.63
2022-09-06T21:11:23.963Z,8.43
2022-09-06T21:14:26.949Z,8.05
2022-09-06T21:17:29.950Z,7.35
2022-09-06T21:20:32.990Z,7.17
2022-09-06T21:23:39.381Z,7.45
2022-09-06T21:26:45.256Z,8.05
2022-09-06T21:29:48.260Z,7.95
2022-09-06T21:32:54.237Z,7.75
2022-09-06T21:36:06.904Z,7.83
2022-09-06T21:39:10.766Z,8.27
2022-09-06T21:42:13.785Z,7.80
2022-09-06T21:45:16.784Z,8.23
2022-09-06T21:48:20.113Z,8.18
2022-09-06T21:51:24.984Z,7.97
2022-09-06T21:54:28.955Z,7.80
2022-09-06T21:57:32.026Z,7.90
2022-09-06T22:00:35.365Z,8.50
2022-09-06T22:03:40.291Z,8.00
2022-09-06T22:06:43.407Z,8.43
2022-09-06T22:09:47.537Z,7.65
2022-09-06T22:12:50.798Z,8.55
2022-09-06T22:15:53.842Z,8.50
2022-09-06T22:18:56.978Z,8.75
2022-09-06T22:21:59.973Z,8.07
2022-09-06T22:25:03.057Z,8.70
2022-09-06T22:28:06.029Z,8.45
2022-09-06T22:31:09.174Z,8.77
2022-09-06T22:34:12.289Z,8.77
2022-09-06T22:37:15.950Z,8.60
2022-09-06T22:40:19.124Z,8.95
2022-09-06T22:43:22.131Z,9.40
2022-09-06T22:46:25.859Z,9.55
2022-09-06T22:49:28.913Z,9.63
2022-09-06T22:52:31.905Z,8.57
2022-09-06T22:55:35.137Z,9.43
2022-09-06T22:58:38.273Z,9.52
2022-09-06T23:01:42.176Z,9.57
2022-09-06T23:04:45.238Z,9.50
2022-09-06T23:07:49.574Z,9.70
2022-09-06T23:10:52.613Z,8.35
2022-09-06T23:13:56.639Z,9.07
2022-09-06T23:16:59.658Z,9.02
2022-09-06T23:20:03.895Z,9.13
2022-09-06T23:23:08.313Z,9.23
2022-09-06T23:26:12.926Z,9.48
2022-09-06T23:29:15.947Z,9.60
2022-09-06T23:32:18.940Z,9.05
2022-09-06T23:35:22.746Z,9.40
2022-09-06T23:38:25.730Z,9.17
2022-09-06T23:41:28.727Z,9.50
2022-09-06T23:44:31.726Z,9.43
2022-09-06T23:47:35.059Z,9.70
2022-09-06T23:50:38.065Z,9.55
2022-09-06T23:53:41.275Z,9.93
2022-09-06T23:56:44.262Z,9.45
2022-09-06T23:59:47.327Z,9.77
